Time;durP1;ratioP1;P1;durP2;ratioP2;P2;SDS_P1;SDS_P2;PMS_P1;PMS_P2;Temp;Humidity;BMP_temperature;BMP_pressure;BME280_temperature;BME280_humidity;BME280_pressure;Samples;Min_cycle;Max_cycle;Signal;HPM_P1;HPM_P2
2023/04/06 00:02:19;;;;;;;;;;;;;;;0.67;69.24;102154.23;107726;1257;58694;-85
2023/04/06 00:04:46;;;;;;;;;;;;;;;0.66;69.13;102154.55;107808;1255;123378;-84
2023/04/06 00:07:14;;;;;;;;;;;;;;;0.67;69.25;102156.15;107752;1257;67112;-85
2023/04/06 00:09:41;;;;;;;;;;;;;;;0.67;69.16;102156.49;108011;1256;71210;-84
2023/04/06 00:12:20;;;;;;;;;;;;;;;0.65;69.05;102154.65;108200;1256;123081;-85
2023/04/06 00:14:47;;;;;;;;;;;;;;;0.62;69.20;102149.67;107835;1257;59554;-84
2023/04/06 00:17:21;;;;;;;;;;;;;;;0.63;69.10;102149.95;107679;1256;123828;-84
2023/04/06 00:19:48;;;;;;;;;;;;;;;0.62;69.08;102148.65;107507;1257;66685;-83
2023/04/06 00:22:16;;;;;;;;;;;;;;;0.60;69.12;102145.36;107340;1257;71482;-84
2023/04/06 00:24:45;;;;;;;;;;;;;;;0.57;69.00;102148.10;107489;1257;123187;-83
2023/04/06 00:27:13;;;;;;;;;;;;;;;0.53;69.01;102146.86;107593;1257;59637;-84
2023/04/06 00:29:41;;;;;;;;;;;;;;;0.48;69.01;102149.88;107407;1257;124043;-83
2023/04/06 00:32:14;;;;;;;;;;;;;;;0.45;68.95;102146.27;107447;1256;66840;-83
2023/04/06 00:34:42;;;;;;;;;;;;;;;0.41;69.03;102145.75;107737;1257;71415;-83
2023/04/06 00:37:10;;;;;;;;;;;;;;;0.39;69.11;102146.29;107745;1258;123666;-81
2023/04/06 00:39:37;;;;;;;;;;;;;;;0.38;69.07;102147.26;107845;1256;60144;-81
2023/04/06 00:42:08;;;;;;;;;;;;;;;0.37;69.25;102145.14;107405;1256;123491;-84
2023/04/06 00:44:35;;;;;;;;;;;;;;;0.37;69.24;102147.86;107478;1258;65821;-84
2023/04/06 00:47:02;;;;;;;;;;;;;;;0.37;69.30;102145.46;107269;1257;123518;-83
2023/04/06 00:49:32;;;;;;;;;;;;;;;0.36;69.26;102144.80;107724;1257;60134;-82
2023/04/06 00:52:01;;;;;;;;;;;;;;;0.34;69.31;102139.98;108251;1256;59721;-83
2023/04/06 00:54:29;;;;;;;;;;;;;;;0.32;69.32;102141.71;108131;1255;123762;-82
2023/04/06 00:57:02;;;;;;;;;;;;;;;0.30;69.33;102138.92;107855;1256;66401;-83
2023/04/06 00:59:29;;;;;;;;;;;;;;;0.25;69.25;102138.15;107689;1260;124230;-82
2023/04/06 01:01:56;;;;;;;;;;;;;;;0.23;69.34;102138.98;107691;1256;59548;-84
2023/04/06 01:04:46;;;;;;;;;;;;;;;0.20;69.23;102137.05;107704;1256;59453;-84
2023/04/06 01:07:14;;;;;;;;;;;;;;;0.16;69.43;102138.80;107554;1255;73443;-83
2023/04/06 01:09:48;;;;;;;;;;;;;;;0.14;69.31;102134.40;107361;1256;65764;-83
2023/04/06 01:12:19;;;;;;;;;;;;;;;0.10;69.52;102130.33;107323;1256;71379;-83
2023/04/06 01:15:04;;;;;;;;;;;;;;;0.08;69.42;102131.84;107442;1256;59707;-83
2023/04/06 01:17:31;;;;;;;;;;;;;;;0.04;69.42;102128.89;107079;1257;124339;-83
2023/04/06 01:19:58;;;;;;;;;;;;;;;-0.01;69.38;102126.19;107366;1257;73063;-82
2023/04/06 01:22:25;;;;;;;;;;;;;;;-0.07;69.46;102129.82;107200;1257;67559;-82
2023/04/06 01:24:52;;;;;;;;;;;;;;;-0.11;69.57;102126.34;107151;1256;124048;-81
2023/04/06 01:27:19;;;;;;;;;;;;;;;-0.16;69.42;102126.05;107457;1255;60621;-82
2023/04/06 01:29:48;;;;;;;;;;;;;;;-0.21;69.38;102124.54;107631;1255;124679;-82
2023/04/06 01:32:20;;;;;;;;;;;;;;;-0.26;69.54;102124.61;108151;1257;73105;-82
2023/04/06 01:35:06;;;;;;;;;;;;;;;-0.29;69.49;102121.96;108046;1256;67054;-81
2023/04/06 01:37:35;;;;;;;;;;;;;;;-0.33;69.62;102122.48;107789;1254;72724;-81
2023/04/06 01:40:05;;;;;;;;;;;;;;;-0.38;69.54;102123.36;107795;1254;61324;-82
2023/04/06 01:42:32;;;;;;;;;;;;;;;-0.43;69.56;102120.91;108004;1256;125062;-81
2023/04/06 01:45:05;;;;;;;;;;;;;;;-0.47;69.62;102124.98;107951;1254;73892;-81
2023/04/06 01:47:32;;;;;;;;;;;;;;;-0.52;69.72;102123.00;107761;1254;124465;-81
2023/04/06 01:49:59;;;;;;;;;;;;;;;-0.56;69.69;102126.92;107456;1254;72748;-81
2023/04/06 01:52:41;;;;;;;;;;;;;;;-0.60;69.78;102124.66;107637;1254;59175;-83
2023/04/06 01:55:08;;;;;;;;;;;;;;;-0.64;69.88;102123.27;107698;1254;124371;-81
2023/04/06 01:57:35;;;;;;;;;;;;;;;-0.68;69.86;102127.57;107983;1254;72607;-81
2023/04/06 02:00:03;;;;;;;;;;;;;;;-0.72;69.87;102130.66;107900;1254;124247;-82
2023/04/06 02:02:38;;;;;;;;;;;;;;;-0.76;69.95;102128.66;107849;1254;72836;-82
2023/04/06 02:05:05;;;;;;;;;;;;;;;-0.79;70.08;102129.65;107758;1254;124478;-82
2023/04/06 02:07:33;;;;;;;;;;;;;;;-0.83;70.06;102130.64;107761;1254;60452;-81
2023/04/06 02:10:00;;;;;;;;;;;;;;;-0.86;70.07;102131.55;107987;1255;72296;-83
2023/04/06 02:12:29;;;;;;;;;;;;;;;-0.89;70.32;102130.92;107822;1254;124903;-83
2023/04/06 02:15:03;;;;;;;;;;;;;;;-0.91;70.27;102130.76;108096;1254;72723;-83
2023/04/06 02:17:55;;;;;;;;;;;;;;;-0.94;70.40;102132.91;107865;1254;125428;-83
2023/04/06 02:20:24;;;;;;;;;;;;;;;-0.97;70.44;102130.00;107890;1254;60377;-83
2023/04/06 02:22:51;;;;;;;;;;;;;;;-1.00;70.48;102133.19;107963;1254;72596;-83
2023/04/06 02:25:19;;;;;;;;;;;;;;;-1.02;70.76;102131.79;107911;1254;124228;-81
2023/04/06 02:27:46;;;;;;;;;;;;;;;-1.05;70.57;102132.39;107902;1254;72368;-81
2023/04/06 02:30:13;;;;;;;;;;;;;;;-1.08;70.70;102132.13;107778;1254;124936;-84
2023/04/06 02:32:41;;;;;;;;;;;;;;;-1.11;70.79;102128.56;108086;1254;58606;-81
2023/04/06 02:35:08;;;;;;;;;;;;;;;-1.15;70.83;102134.39;107910;1254;125516;-81
2023/04/06 02:37:37;;;;;;;;;;;;;;;-1.18;70.90;102136.53;108099;1256;65842;-81
2023/04/06 02:40:06;;;;;;;;;;;;;;;-1.20;70.91;102139.81;107875;1254;72835;-81
2023/04/06 02:42:33;;;;;;;;;;;;;;;-1.24;70.79;102136.13;107856;1254;124423;-81
2023/04/06 02:45:00;;;;;;;;;;;;;;;-1.24;70.99;102143.38;107905;1259;60422;-81
2023/04/06 02:47:28;;;;;;;;;;;;;;;-1.26;71.05;102141.80;108032;1254;124842;-81
2023/04/06 02:49:55;;;;;;;;;;;;;;;-1.28;71.13;102139.55;107858;1254;66101;-81
2023/04/06 02:52:24;;;;;;;;;;;;;;;-1.29;71.14;102137.66;107856;1254;72699;-81
2023/04/06 02:54:51;;;;;;;;;;;;;;;-1.31;71.29;102141.30;107908;1254;124912;-81
2023/04/06 02:57:19;;;;;;;;;;;;;;;-1.32;71.32;102143.10;108155;1254;60496;-81
2023/04/06 02:59:47;;;;;;;;;;;;;;;-1.32;71.29;102144.38;107867;1254;124860;-81
2023/04/06 03:02:15;;;;;;;;;;;;;;;-1.32;71.28;102141.02;107849;1254;67301;-81
2023/04/06 03:04:43;;;;;;;;;;;;;;;-1.36;71.35;102140.73;108010;1254;72793;-82
2023/04/06 03:07:10;;;;;;;;;;;;;;;-1.39;71.25;102141.61;107663;1254;125210;-80
2023/04/06 03:09:38;;;;;;;;;;;;;;;-1.41;71.45;102136.80;107708;1254;59635;-80
2023/04/06 03:12:06;;;;;;;;;;;;;;;-1.43;71.42;102139.50;107567;1254;125757;-80
2023/04/06 03:14:33;;;;;;;;;;;;;;;-1.46;71.43;102138.56;108960;1254;67041;-82
2023/04/06 03:17:00;;;;;;;;;;;;;;;-1.48;71.51;102139.48;108947;1254;124353;-82
2023/04/06 03:19:27;;;;;;;;;;;;;;;-1.50;71.58;102139.49;109110;1254;58580;-82
2023/04/06 03:21:54;;;;;;;;;;;;;;;-1.53;71.55;102136.13;108725;1254;58791;-83
2023/04/06 03:24:21;;;;;;;;;;;;;;;-1.56;71.75;102140.83;107713;1254;124631;-83
2023/04/06 03:26:54;;;;;;;;;;;;;;;-1.59;71.78;102142.80;107689;1254;65766;-81
2023/04/06 03:29:22;;;;;;;;;;;;;;;-1.62;71.83;102143.55;107562;1254;123740;-81
2023/04/06 03:31:51;;;;;;;;;;;;;;;-1.64;71.90;102139.39;107750;1254;58938;-82
2023/04/06 03:34:20;;;;;;;;;;;;;;;-1.64;71.96;102141.45;107702;1254;60695;-82
2023/04/06 03:36:47;;;;;;;;;;;;;;;-1.67;72.04;102144.13;107769;1254;123779;-82
2023/04/06 03:39:20;;;;;;;;;;;;;;;-1.68;72.06;102145.38;107977;1254;67030;-82
2023/04/06 03:41:47;;;;;;;;;;;;;;;-1.68;72.22;102147.23;108734;1256;124268;-82
2023/04/06 03:44:14;;;;;;;;;;;;;;;-1.70;72.23;102148.98;108166;1256;58860;-82
2023/04/06 03:46:41;;;;;;;;;;;;;;;-1.72;72.26;102154.31;108184;1255;59259;-82
2023/04/06 03:49:09;;;;;;;;;;;;;;;-1.73;72.16;102157.05;107771;1256;124156;-81
2023/04/06 03:51:42;;;;;;;;;;;;;;;-1.77;72.17;102156.55;107883;1259;65627;-84
2023/04/06 03:54:09;;;;;;;;;;;;;;;-1.80;72.38;102162.87;107771;1259;123666;-82
2023/04/06 03:56:50;;;;;;;;;;;;;;;-1.83;72.25;102163.78;107686;1260;59964;-83
2023/04/06 03:59:20;;;;;;;;;;;;;;;-1.86;72.37;102166.91;107850;1256;123763;-82
2023/04/06 04:01:47;;;;;;;;;;;;;;;-1.88;72.51;102168.23;107787;1256;73787;-81
2023/04/06 04:04:14;;;;;;;;;;;;;;;-1.90;72.35;102167.89;107974;1256;67119;-82
2023/04/06 04:06:43;;;;;;;;;;;;;;;-1.92;72.53;102167.67;107454;1257;123903;-82
2023/04/06 04:09:10;;;;;;;;;;;;;;;-1.94;72.60;102169.05;107491;1256;59072;-80
2023/04/06 04:11:37;;;;;;;;;;;;;;;-1.94;72.72;102165.04;107586;1256;124125;-80
2023/04/06 04:14:04;;;;;;;;;;;;;;;-1.95;72.59;102169.96;107591;1256;73926;-81
2023/04/06 04:16:31;;;;;;;;;;;;;;;-1.95;72.66;102171.33;107619;1256;65848;-81
2023/04/06 04:18:58;;;;;;;;;;;;;;;-1.94;72.82;102170.20;107641;1255;124399;-80
2023/04/06 04:21:25;;;;;;;;;;;;;;;-1.92;72.85;102169.08;108008;1256;58896;-80
2023/04/06 04:23:52;;;;;;;;;;;;;;;-1.88;72.84;102173.05;107717;1256;123920;-81
2023/04/06 04:26:19;;;;;;;;;;;;;;;-1.84;72.91;102169.54;108229;1256;72433;-81
2023/04/06 04:28:46;;;;;;;;;;;;;;;-1.79;72.94;102167.71;108129;1257;66938;-80
2023/04/06 04:31:13;;;;;;;;;;;;;;;-1.73;73.04;102170.34;107739;1255;124875;-81
2023/04/06 04:33:40;;;;;;;;;;;;;;;-1.66;73.16;102172.09;107790;1256;59947;-84
2023/04/06 04:36:07;;;;;;;;;;;;;;;-1.55;73.08;102170.16;107652;1257;124726;-81
2023/04/06 04:38:34;;;;;;;;;;;;;;;-1.43;73.05;102171.55;107883;1256;72747;-81
2023/04/06 04:41:02;;;;;;;;;;;;;;;-1.24;73.26;102173.34;108041;1256;124356;-80
2023/04/06 04:43:29;;;;;;;;;;;;;;;-0.98;73.31;102169.58;108950;1256;71207;-80
2023/04/06 04:45:56;;;;;;;;;;;;;;;-0.64;73.35;102167.57;108235;1256;60591;-80
2023/04/06 04:48:23;;;;;;;;;;;;;;;-0.17;73.30;102165.99;107630;1255;124034;-80
2023/04/06 04:50:50;;;;;;;;;;;;;;;0.27;73.04;102167.19;107857;1258;73889;-83
2023/04/06 04:53:17;;;;;;;;;;;;;;;1.01;73.37;102163.60;107905;1256;124151;-82
2023/04/06 04:55:44;;;;;;;;;;;;;;;2.23;73.83;102160.93;107712;1255;72534;-82
2023/04/06 04:58:16;;;;;;;;;;;;;;;3.42;73.07;102153.95;107971;1256;59599;-81
2023/04/06 05:00:43;;;;;;;;;;;;;;;4.54;71.96;102149.41;107939;1256;123959;-81
2023/04/06 05:03:29;;;;;;;;;;;;;;;5.83;71.24;102152.71;108123;1256;72655;-81
2023/04/06 05:05:56;;;;;;;;;;;;;;;6.70;69.18;102152.99;108095;1256;124642;-81
2023/04/06 05:08:23;;;;;;;;;;;;;;;6.70;66.51;102148.59;107911;1256;73289;-80
2023/04/06 05:10:50;;;;;;;;;;;;;;;6.28;64.75;102154.14;107803;1256;60607;-80
2023/04/06 05:13:17;;;;;;;;;;;;;;;5.74;64.07;102156.81;107475;1257;124394;-81
2023/04/06 05:15:44;;;;;;;;;;;;;;;5.25;63.76;102154.86;107560;1256;72569;-81
2023/04/06 05:18:12;;;;;;;;;;;;;;;4.72;63.58;102158.33;107589;1255;124089;-81
2023/04/06 05:20:39;;;;;;;;;;;;;;;4.41;63.93;102165.83;107747;1258;71411;-81
2023/04/06 05:23:06;;;;;;;;;;;;;;;4.19;64.03;102164.75;107564;1256;124872;-81
2023/04/06 05:25:33;;;;;;;;;;;;;;;4.00;63.77;102166.66;107922;1255;60385;-81
2023/04/06 05:28:00;;;;;;;;;;;;;;;3.84;64.05;102165.52;108309;1256;73612;-82
2023/04/06 05:30:27;;;;;;;;;;;;;;;3.78;64.15;102163.49;107956;1256;124736;-81
2023/04/06 05:32:54;;;;;;;;;;;;;;;3.69;64.16;102167.67;108166;1256;71188;-82
2023/04/06 05:35:22;;;;;;;;;;;;;;;3.54;64.24;102170.20;107698;1256;124345;-81
2023/04/06 05:37:51;;;;;;;;;;;;;;;3.51;64.54;102170.29;107839;1256;60322;-85
2023/04/06 05:40:19;;;;;;;;;;;;;;;3.51;64.49;102172.38;107471;1256;73766;-81
2023/04/06 05:42:46;;;;;;;;;;;;;;;3.50;64.60;102168.13;107444;1256;124697;-82
2023/04/06 05:45:16;;;;;;;;;;;;;;;3.51;64.72;102167.86;107811;1256;72643;-81
2023/04/06 05:47:47;;;;;;;;;;;;;;;3.50;64.63;102169.22;107540;1256;60348;-83
2023/04/06 05:50:15;;;;;;;;;;;;;;;3.50;64.73;102165.92;107670;1256;61309;-82
2023/04/06 05:52:42;;;;;;;;;;;;;;;3.49;64.72;102165.98;107654;1256;72567;-82
2023/04/06 05:55:10;;;;;;;;;;;;;;;3.43;64.76;102167.83;107516;1256;123957;-82
2023/04/06 05:57:40;;;;;;;;;;;;;;;3.40;64.66;102168.39;107733;1257;73679;-82
2023/04/06 06:00:09;;;;;;;;;;;;;;;3.37;64.76;102170.27;107820;1254;123816;-81
2023/04/06 06:02:36;;;;;;;;;;;;;;;3.37;64.92;102167.65;108970;1254;60288;-81
2023/04/06 06:05:03;;;;;;;;;;;;;;;3.38;65.10;102166.39;107462;1254;124253;-81
2023/04/06 06:07:32;;;;;;;;;;;;;;;3.40;65.16;102166.50;107968;1254;67150;-82
2023/04/06 06:09:59;;;;;;;;;;;;;;;3.43;65.05;102168.30;107766;1255;72514;-82
2023/04/06 06:12:28;;;;;;;;;;;;;;;3.46;65.17;102170.25;107707;1256;123835;-82
2023/04/06 06:14:55;;;;;;;;;;;;;;;3.47;65.24;102168.31;107918;1254;60154;-81
2023/04/06 06:17:24;;;;;;;;;;;;;;;3.51;65.19;102169.27;108170;1254;123735;-81
2023/04/06 06:19:51;;;;;;;;;;;;;;;3.56;65.16;102168.10;108457;1254;66921;-81
2023/04/06 06:22:18;;;;;;;;;;;;;;;3.61;65.12;102170.19;108315;1254;72797;-81
2023/04/06 06:24:45;;;;;;;;;;;;;;;3.65;64.73;102171.16;107818;1254;123850;-81
2023/04/06 06:27:12;;;;;;;;;;;;;;;3.66;64.25;102168.88;107909;1254;59007;-81
2023/04/06 06:29:40;;;;;;;;;;;;;;;3.67;64.21;102163.68;107645;1254;123545;-81
2023/04/06 06:32:08;;;;;;;;;;;;;;;3.74;64.08;102161.80;107732;1254;66894;-82
2023/04/06 06:34:35;;;;;;;;;;;;;;;3.76;63.31;102165.05;107504;1254;71346;-83
2023/04/06 06:37:02;;;;;;;;;;;;;;;3.73;63.02;102161.75;107672;1254;123507;-83
2023/04/06 06:39:31;;;;;;;;;;;;;;;3.71;62.85;102159.98;107691;1254;60183;-83
2023/04/06 06:42:01;;;;;;;;;;;;;;;3.70;62.86;102157.34;107575;1254;123351;-82
2023/04/06 06:44:58;;;;;;;;;;;;;;;3.72;62.51;102161.27;107485;1254;67573;-88
2023/04/06 06:47:31;;;;;;;;;;;;;;;3.68;62.32;102167.58;107361;1254;124029;-82
2023/04/06 06:49:58;;;;;;;;;;;;;;;3.64;62.15;102168.73;107580;1254;58851;-81
2023/04/06 06:52:25;;;;;;;;;;;;;;;3.67;62.01;102169.58;107736;1258;59655;-80
2023/04/06 06:54:53;;;;;;;;;;;;;;;3.74;61.89;102164.70;108005;1254;124002;-80
2023/04/06 06:57:26;;;;;;;;;;;;;;;3.82;62.00;102163.06;108084;1254;67018;-82
2023/04/06 06:59:53;;;;;;;;;;;;;;;3.92;62.07;102168.48;107435;1254;123427;-82
2023/04/06 07:02:21;;;;;;;;;;;;;;;3.96;61.77;102166.73;107595;1254;59540;-81
2023/04/06 07:04:49;;;;;;;;;;;;;;;3.97;61.82;102166.63;107574;1254;60128;-82
2023/04/06 07:07:16;;;;;;;;;;;;;;;4.01;61.85;102165.19;107666;1254;123620;-83
2023/04/06 07:09:45;;;;;;;;;;;;;;;4.05;62.09;102163.77;107579;1259;66806;-82
2023/04/06 07:12:12;;;;;;;;;;;;;;;4.09;62.27;102164.08;107475;1254;123972;-82
2023/04/06 07:14:40;;;;;;;;;;;;;;;4.12;62.29;102167.21;107844;1254;58568;-82
2023/04/06 07:17:07;;;;;;;;;;;;;;;4.16;62.35;102164.05;107728;1259;123739;-82
2023/04/06 07:19:34;;;;;;;;;;;;;;;4.21;62.50;102167.68;107714;1255;71919;-80
2023/04/06 07:22:03;;;;;;;;;;;;;;;4.20;62.61;102168.13;107666;1254;66398;-80
2023/04/06 07:24:32;;;;;;;;;;;;;;;4.20;62.77;102169.50;107563;1256;123592;-81
2023/04/06 07:27:00;;;;;;;;;;;;;;;4.19;62.97;102165.98;107716;1254;60517;-80
2023/04/06 07:29:27;;;;;;;;;;;;;;;4.19;63.25;102164.27;107645;1254;123540;-82
2023/04/06 07:31:56;;;;;;;;;;;;;;;4.22;63.26;102167.59;107429;1254;72568;-82
2023/04/06 07:34:23;;;;;;;;;;;;;;;4.25;63.30;102165.89;107891;1254;65870;-83
2023/04/06 07:36:52;;;;;;;;;;;;;;;4.29;63.50;102167.80;107917;1259;123462;-80
2023/04/06 07:39:19;;;;;;;;;;;;;;;4.39;63.57;102160.70;108576;1256;60502;-80
2023/04/06 07:41:47;;;;;;;;;;;;;;;4.60;63.70;102163.02;107784;1254;123535;-80
2023/04/06 07:44:15;;;;;;;;;;;;;;;4.79;63.44;102167.33;107544;1259;71352;-82
2023/04/06 07:46:46;;;;;;;;;;;;;;;4.83;63.20;102169.92;107728;1254;65494;-82
2023/04/06 07:49:15;;;;;;;;;;;;;;;4.91;63.05;102166.99;107698;1254;123854;-83
2023/04/06 07:51:45;;;;;;;;;;;;;;;5.11;63.05;102167.14;107458;1256;58690;-83
2023/04/06 07:54:19;;;;;;;;;;;;;;;5.23;62.85;102164.85;107339;1254;123473;-83
2023/04/06 07:56:46;;;;;;;;;;;;;;;5.33;62.48;102158.04;107720;1254;73951;-83
2023/04/06 07:59:32;;;;;;;;;;;;;;;5.42;62.41;102158.36;107532;1254;123519;-84
2023/04/06 08:02:00;;;;;;;;;;;;;;;5.56;61.98;102163.44;107435;1258;71548;-83
2023/04/06 08:04:31;;;;;;;;;;;;;;;5.58;61.69;102162.20;107445;1254;60414;-82
2023/04/06 08:06:59;;;;;;;;;;;;;;;5.63;61.45;102155.77;107626;1255;124055;-82
2023/04/06 08:09:27;;;;;;;;;;;;;;;5.69;61.19;102157.35;107869;1254;73568;-81
2023/04/06 08:11:54;;;;;;;;;;;;;;;5.74;61.02;102154.39;107808;1254;124226;-80
2023/04/06 08:14:21;;;;;;;;;;;;;;;5.81;61.09;102157.08;107656;1254;72739;-80
2023/04/06 08:16:48;;;;;;;;;;;;;;;5.83;60.89;102157.59;107401;1256;61113;-80
2023/04/06 08:19:17;;;;;;;;;;;;;;;5.81;60.67;102157.15;107534;1254;123774;-80
2023/04/06 08:21:44;;;;;;;;;;;;;;;5.81;60.90;102153.48;107715;1257;73919;-81
2023/04/06 08:24:11;;;;;;;;;;;;;;;5.87;60.90;102157.14;107753;1255;126227;-81
2023/04/06 08:26:38;;;;;;;;;;;;;;;5.85;60.63;102152.88;107475;1256;74146;-81
2023/04/06 08:29:07;;;;;;;;;;;;;;;5.78;60.37;102156.95;107440;1254;123838;-80
2023/04/06 08:31:34;;;;;;;;;;;;;;;5.73;60.38;102154.30;107691;1254;60656;-81
2023/04/06 08:34:03;;;;;;;;;;;;;;;5.64;60.32;102162.95;107670;1254;73935;-82
2023/04/06 08:36:31;;;;;;;;;;;;;;;5.55;60.26;102164.64;107506;1254;123527;-81
2023/04/06 08:38:58;;;;;;;;;;;;;;;5.45;60.20;102161.83;107667;1254;71473;-81
2023/04/06 08:41:27;;;;;;;;;;;;;;;5.47;60.35;102159.39;107677;1254;123470;-81
2023/04/06 08:43:54;;;;;;;;;;;;;;;5.56;60.19;102159.64;107480;1255;60348;-80
2023/04/06 08:46:21;;;;;;;;;;;;;;;5.69;60.35;102157.02;107953;1255;71952;-80
2023/04/06 08:48:51;;;;;;;;;;;;;;;5.92;60.29;102155.45;107851;1254;123891;-80
2023/04/06 08:51:18;;;;;;;;;;;;;;;6.03;59.93;102160.18;107893;1258;71388;-80
2023/04/06 08:53:45;;;;;;;;;;;;;;;6.04;59.49;102159.02;108975;1256;58291;-80
2023/04/06 08:56:15;;;;;;;;;;;;;;;6.05;59.30;102159.59;107483;1259;60230;-80
2023/04/06 08:58:42;;;;;;;;;;;;;;;5.99;59.08;102159.95;107251;1255;74206;-81
2023/04/06 09:01:11;;;;;;;;;;;;;;;5.92;58.91;102159.29;107428;1254;123892;-83
2023/04/06 09:03:39;;;;;;;;;;;;;;;5.81;58.45;102156.07;107367;1257;71466;-82
2023/04/06 09:06:06;;;;;;;;;;;;;;;5.77;58.63;102153.53;107390;1254;123731;-83
2023/04/06 09:08:34;;;;;;;;;;;;;;;5.85;58.95;102153.73;107401;1259;61165;-82
2023/04/06 09:11:02;;;;;;;;;;;;;;;5.99;58.91;102153.10;107781;1254;73897;-82
2023/04/06 09:13:48;;;;;;;;;;;;;;;6.01;58.57;102153.79;107882;1259;124088;-81
2023/04/06 09:16:16;;;;;;;;;;;;;;;6.03;58.48;102149.40;107806;1257;70234;-81
2023/04/06 09:18:43;;;;;;;;;;;;;;;6.09;58.62;102146.77;107525;1254;125542;-81
2023/04/06 09:21:10;;;;;;;;;;;;;;;6.16;58.45;102151.42;107523;1257;58648;-82
2023/04/06 09:23:39;;;;;;;;;;;;;;;6.17;58.42;102154.16;107501;1254;123677;-84
2023/04/06 09:26:13;;;;;;;;;;;;;;;6.26;58.43;102147.58;107904;1254;67168;-82
2023/04/06 09:28:50;;;;;;;;;;;;;;;6.44;58.28;102145.77;107912;1256;73162;-82
2023/04/06 09:31:28;;;;;;;;;;;;;;;6.52;57.81;102148.54;107784;1254;124149;-83
2023/04/06 09:33:55;;;;;;;;;;;;;;;6.51;57.25;102144.99;107913;1259;60511;-82
2023/04/06 09:36:30;;;;;;;;;;;;;;;6.49;57.38;102139.06;107675;1254;124083;-81
2023/04/06 09:38:57;;;;;;;;;;;;;;;6.54;56.79;102144.48;107940;1256;66779;-80
2023/04/06 09:41:25;;;;;;;;;;;;;;;6.50;56.79;102145.41;108417;1254;209476;-80
2023/04/06 09:43:52;;;;;;;;;;;;;;;6.36;56.36;102146.27;107850;1258;59196;-80
2023/04/06 09:46:20;;;;;;;;;;;;;;;6.27;56.07;102146.73;107853;1254;60643;-80
2023/04/06 09:48:47;;;;;;;;;;;;;;;6.28;56.39;102149.77;108109;1254;123406;-80
2023/04/06 09:51:15;;;;;;;;;;;;;;;6.31;56.28;102147.57;108334;1254;67751;-80
2023/04/06 09:53:42;;;;;;;;;;;;;;;6.45;56.10;102146.12;107931;1256;124486;-80
2023/04/06 09:56:10;;;;;;;;;;;;;;;6.60;56.29;102146.77;107880;1256;61374;-80
2023/04/06 09:58:39;;;;;;;;;;;;;;;6.85;56.42;102139.98;108054;1255;58864;-81
2023/04/06 10:01:15;;;;;;;;;;;;;;;6.99;56.16;102140.33;108078;1254;123928;-80
2023/04/06 10:04:15;;;;;;;;;;;;;;;7.02;55.76;102140.68;108169;1256;67256;-80
2023/04/06 10:06:42;;;;;;;;;;;;;;;7.07;55.63;102144.81;107545;1255;124152;-80
2023/04/06 10:09:09;;;;;;;;;;;;;;;7.12;55.38;102142.30;107369;1254;60096;-82
2023/04/06 10:11:36;;;;;;;;;;;;;;;7.16;55.18;102145.35;107229;1255;123584;-81
2023/04/06 10:14:03;;;;;;;;;;;;;;;7.16;54.96;102144.31;107299;1261;72612;-80
2023/04/06 10:16:30;;;;;;;;;;;;;;;7.18;54.70;102148.83;107122;1260;66076;-80
2023/04/06 10:19:10;;;;;;;;;;;;;;;7.22;54.73;102145.86;107128;1256;123550;-80
2023/04/06 10:21:37;;;;;;;;;;;;;;;7.17;54.46;102146.11;107592;1256;60374;-80
2023/04/06 10:24:09;;;;;;;;;;;;;;;7.00;54.18;102149.95;107649;1256;123459;-81
2023/04/06 10:26:36;;;;;;;;;;;;;;;6.84;54.30;102153.52;108171;1256;73872;-82
2023/04/06 10:29:04;;;;;;;;;;;;;;;6.84;54.41;102148.42;107582;1256;65887;-81
2023/04/06 10:31:31;;;;;;;;;;;;;;;6.88;54.41;102145.53;107630;1257;123454;-81
2023/04/06 10:33:59;;;;;;;;;;;;;;;6.92;54.03;102146.13;107926;1256;58524;-81
2023/04/06 10:36:29;;;;;;;;;;;;;;;6.90;53.82;102143.22;107673;1256;123440;-81
2023/04/06 10:38:57;;;;;;;;;;;;;;;6.95;54.18;102140.94;107266;1263;74588;-81
2023/04/06 10:41:31;;;;;;;;;;;;;;;7.03;54.12;102144.91;107411;1259;124202;-81
2023/04/06 10:43:58;;;;;;;;;;;;;;;7.04;54.23;102143.93;107606;1256;71451;-81
2023/04/06 10:46:25;;;;;;;;;;;;;;;7.09;54.00;102149.45;107717;1256;58823;-79
2023/04/06 10:48:52;;;;;;;;;;;;;;;7.01;54.00;102141.11;107547;1255;123581;-79
2023/04/06 10:51:20;;;;;;;;;;;;;;;6.87;53.83;102133.45;107561;1260;72803;-78
2023/04/06 10:53:48;;;;;;;;;;;;;;;6.86;54.01;102138.45;107387;1261;124384;-80
2023/04/06 10:56:16;;;;;;;;;;;;;;;6.94;54.45;102136.36;107560;1256;71123;-80
2023/04/06 10:58:45;;;;;;;;;;;;;;;6.99;53.93;102146.06;107514;1256;58550;-79
2023/04/06 11:01:12;;;;;;;;;;;;;;;6.81;53.46;102138.30;108866;1256;123960;-79
2023/04/06 11:03:43;;;;;;;;;;;;;;;6.73;53.63;102139.19;108859;1256;74441;-79
2023/04/06 11:06:10;;;;;;;;;;;;;;;6.69;53.71;102135.80;108717;1256;123931;-80
2023/04/06 11:08:38;;;;;;;;;;;;;;;6.72;53.59;102136.37;108722;1257;73000;-79
2023/04/06 11:11:07;;;;;;;;;;;;;;;6.57;53.47;102130.55;107579;1257;58937;-81
2023/04/06 11:13:41;;;;;;;;;;;;;;;6.55;53.49;102129.04;107324;1256;124092;-80
2023/04/06 11:16:18;;;;;;;;;;;;;;;6.67;53.95;102123.31;107690;1257;74300;-80
2023/04/06 11:18:48;;;;;;;;;;;;;;;6.74;53.98;102115.40;107724;1256;124506;-81
2023/04/06 11:21:15;;;;;;;;;;;;;;;6.71;53.86;102116.95;107607;1257;72888;-83
2023/04/06 11:23:42;;;;;;;;;;;;;;;6.64;53.69;102121.01;107604;1256;123801;-79
2023/04/06 11:26:10;;;;;;;;;;;;;;;6.47;53.61;102117.16;108339;1256;60125;-83
2023/04/06 11:28:37;;;;;;;;;;;;;;;6.35;53.50;102118.31;108951;1256;73983;-80
2023/04/06 11:31:05;;;;;;;;;;;;;;;6.24;53.84;102122.17;108906;1256;123794;-80
2023/04/06 11:33:36;;;;;;;;;;;;;;;6.24;54.11;102113.64;108830;1256;71149;-80
2023/04/06 11:36:03;;;;;;;;;;;;;;;6.37;54.01;102107.81;107520;1256;123605;-80
2023/04/06 11:38:30;;;;;;;;;;;;;;;6.38;53.81;102107.70;107540;1255;60174;-80
2023/04/06 11:40:57;;;;;;;;;;;;;;;6.22;53.53;102104.59;107607;1256;72998;-80
2023/04/06 11:43:30;;;;;;;;;;;;;;;6.25;53.63;102111.25;107595;1255;124330;-80
2023/04/06 11:46:03;;;;;;;;;;;;;;;6.26;53.93;102110.41;107564;1256;72738;-80
2023/04/06 11:48:31;;;;;;;;;;;;;;;6.28;53.70;102102.53;107223;1255;123602;-80
2023/04/06 11:50:58;;;;;;;;;;;;;;;6.21;53.65;102105.06;107435;1256;60506;-80
2023/04/06 11:53:27;;;;;;;;;;;;;;;6.12;53.87;102097.64;107514;1256;124020;-79
2023/04/06 11:55:54;;;;;;;;;;;;;;;6.05;53.61;102105.97;107895;1256;65604;-80
2023/04/06 11:58:21;;;;;;;;;;;;;;;5.96;53.42;102096.66;107759;1257;73295;-80
2023/04/06 12:00:49;;;;;;;;;;;;;;;6.02;53.80;102097.58;108839;1255;123527;-83
2023/04/06 12:03:16;;;;;;;;;;;;;;;6.16;53.89;102092.55;109057;1256;58510;-80
2023/04/06 12:05:43;;;;;;;;;;;;;;;6.26;53.53;102094.08;108872;1256;123660;-79
2023/04/06 12:08:10;;;;;;;;;;;;;;;6.31;53.60;102092.27;109023;1256;67539;-79
2023/04/06 12:10:37;;;;;;;;;;;;;;;6.38;53.56;102091.48;108997;1256;71651;-79
2023/04/06 12:13:05;;;;;;;;;;;;;;;6.46;53.48;102093.58;108873;1255;123450;-79
2023/04/06 12:15:32;;;;;;;;;;;;;;;6.41;53.06;102083.49;108539;1256;59550;-80
2023/04/06 12:17:59;;;;;;;;;;;;;;;6.51;53.23;102081.81;107380;1257;123452;-82
2023/04/06 12:20:27;;;;;;;;;;;;;;;6.60;52.70;102079.42;107446;1256;67061;-82
2023/04/06 12:22:54;;;;;;;;;;;;;;;6.60;53.02;102076.98;107778;1256;73655;-80
2023/04/06 12:25:21;;;;;;;;;;;;;;;6.55;52.82;102075.11;107742;1255;123982;-80
2023/04/06 12:27:49;;;;;;;;;;;;;;;6.49;53.01;102071.10;107833;1256;58806;-80
2023/04/06 12:30:16;;;;;;;;;;;;;;;6.54;53.36;102068.63;107713;1260;123508;-80
2023/04/06 12:32:43;;;;;;;;;;;;;;;6.57;52.87;102064.60;108071;1255;67458;-81
2023/04/06 12:35:11;;;;;;;;;;;;;;;6.54;53.17;102071.05;107849;1256;124338;-82
2023/04/06 12:37:40;;;;;;;;;;;;;;;6.46;53.18;102064.95;107641;1256;58863;-79
2023/04/06 12:40:10;;;;;;;;;;;;;;;6.40;53.55;102066.37;107771;1257;60201;-81